createdAt,value
2022-10-30T00:00:15.493Z,99.90
2022-10-30T00:05:18.662Z,99.90
2022-10-30T00:10:21.062Z,99.90
2022-10-30T00:15:23.465Z,99.90
2022-10-30T00:20:25.801Z,99.90
2022-10-30T00:25:28.134Z,99.90
2022-10-30T00:30:30.606Z,99.90
2022-10-30T00:35:33.091Z,99.90
2022-10-30T00:40:35.726Z,99.90
2022-10-30T00:45:38.301Z,99.90
2022-10-30T00:50:40.842Z,99.90
2022-10-30T00:55:50.939Z,99.90
2022-10-30T01:00:58.135Z,99.90
2022-10-30T01:06:04.441Z,99.90
2022-10-30T01:11:09.303Z,99.90
2022-10-30T01:16:49.385Z,99.90
2022-10-30T01:21:51.812Z,99.90
2022-10-30T01:27:09.207Z,99.90
2022-10-30T01:32:50.126Z,99.90
2022-10-30T01:38:05.650Z,99.90
2022-10-30T01:43:09.411Z,99.90
2022-10-30T01:48:17.771Z,99.90
2022-10-30T01:53:25.581Z,99.90
2022-10-30T01:58:44.909Z,99.90
2022-10-30T02:03:47.974Z,99.90
2022-10-30T02:08:50.580Z,99.90
2022-10-30T02:13:56.112Z,99.90
2022-10-30T02:18:59.121Z,99.90
2022-10-30T02:24:01.877Z,99.90
2022-10-30T02:29:04.286Z,99.90
2022-10-30T02:34:06.677Z,99.90
2022-10-30T02:39:09.100Z,99.90
2022-10-30T02:44:12.806Z,99.90
2022-10-30T02:49:15.155Z,99.90
2022-10-30T02:54:17.559Z,99.90
2022-10-30T02:59:20.680Z,99.90
2022-10-30T03:04:25.015Z,99.90
2022-10-30T03:09:27.795Z,99.90
2022-10-30T03:14:30.202Z,99.90
2022-10-30T03:19:32.602Z,99.90
2022-10-30T03:24:35.033Z,99.90
2022-10-30T03:29:37.401Z,99.90
2022-10-30T03:34:40.689Z,99.90
2022-10-30T03:39:43.597Z,99.90
2022-10-30T03:44:46.056Z,99.90
2022-10-30T03:49:48.540Z,99.90
2022-10-30T03:54:55.019Z,99.90
2022-10-30T03:59:57.527Z,99.90
2022-10-30T04:05:25.925Z,99.90
2022-10-30T04:10:30.794Z,99.90
2022-10-30T04:15:37.162Z,99.90
2022-10-30T04:20:40.023Z,99.90
2022-10-30T04:25:43.116Z,99.90
2022-10-30T04:30:47.089Z,99.90
2022-10-30T04:35:51.914Z,99.90
2022-10-30T04:40:56.189Z,99.90
2022-10-30T04:46:06.889Z,99.90
2022-10-30T04:51:11.744Z,99.90
2022-10-30T04:56:14.166Z,99.90
2022-10-30T05:01:16.750Z,99.90
2022-10-30T05:06:27.804Z,99.90
2022-10-30T05:11:30.729Z,99.90
2022-10-30T05:16:33.237Z,99.90
2022-10-30T05:21:38.180Z,99.90
2022-10-30T05:26:40.655Z,99.90
2022-10-30T05:31:43.128Z,99.90
2022-10-30T05:36:51.459Z,99.90
2022-10-30T05:41:55.601Z,99.90
2022-10-30T05:47:01.587Z,99.90
2022-10-30T05:52:07.577Z,99.90
2022-10-30T05:57:10.907Z,99.90
2022-10-30T06:02:17.205Z,99.90
2022-10-30T06:07:19.826Z,99.90
2022-10-30T06:12:23.761Z,99.90
2022-10-30T06:17:52.093Z,99.90
2022-10-30T06:23:11.938Z,99.90
2022-10-30T06:28:21.843Z,99.90
2022-10-30T06:33:24.354Z,99.90
2022-10-30T06:38:27.716Z,99.90
2022-10-30T06:43:31.271Z,99.90
2022-10-30T06:48:38.441Z,99.90
2022-10-30T06:53:40.795Z,99.90
2022-10-30T06:59:15.158Z,99.90
2022-10-30T07:04:40.655Z,99.90
2022-10-30T07:09:43.937Z,99.90
2022-10-30T07:14:47.612Z,99.90
2022-10-30T07:20:10.678Z,99.90
2022-10-30T07:25:13.161Z,99.90
2022-10-30T07:30:32.075Z,99.90
2022-10-30T07:35:53.397Z,99.90
2022-10-30T07:41:14.294Z,99.90
2022-10-30T07:46:25.213Z,99.90
2022-10-30T07:51:56.681Z,99.90
2022-10-30T07:56:59.093Z,99.90
2022-10-30T08:02:20.148Z,99.90
2022-10-30T08:07:46.714Z,99.90
2022-10-30T08:12:50.014Z,99.90
2022-10-30T08:17:53.457Z,99.90
2022-10-30T08:22:58.320Z,99.90
2022-10-30T08:28:06.707Z,99.90
2022-10-30T08:33:16.455Z,99.90
2022-10-30T08:38:37.610Z,99.90
2022-10-30T08:43:51.420Z,99.90
2022-10-30T08:48:55.582Z,99.90
2022-10-30T08:53:59.084Z,99.90
2022-10-30T08:59:01.574Z,99.90
2022-10-30T09:04:04.436Z,99.90
2022-10-30T09:09:24.838Z,99.90
2022-10-30T09:14:31.464Z,99.90
2022-10-30T09:19:34.178Z,99.90
2022-10-30T09:24:37.745Z,99.90
2022-10-30T09:29:58.454Z,99.90
2022-10-30T09:35:07.512Z,99.90
2022-10-30T09:40:38.374Z,99.90
2022-10-30T09:46:02.100Z,99.90
2022-10-30T09:51:31.681Z,99.90
2022-10-30T09:56:41.831Z,99.90
2022-10-30T10:01:54.083Z,99.90
2022-10-30T10:07:16.292Z,99.90
2022-10-30T10:12:43.848Z,99.90
2022-10-30T10:17:47.135Z,99.90
2022-10-30T10:22:50.756Z,99.90
2022-10-30T10:28:08.129Z,99.90
2022-10-30T10:33:57.680Z,99.90
2022-10-30T10:39:15.308Z,99.90
2022-10-30T10:44:20.554Z,99.90
2022-10-30T10:49:39.210Z,99.90
2022-10-30T10:54:46.049Z,99.90
2022-10-30T10:59:53.348Z,99.90
2022-10-30T11:05:02.223Z,99.90
2022-10-30T11:10:13.383Z,99.90
2022-10-30T11:15:25.955Z,99.90
2022-10-30T11:20:40.827Z,99.90
2022-10-30T11:25:43.298Z,99.90
2022-10-30T11:30:45.563Z,99.90
2022-10-30T11:35:47.830Z,99.90
2022-10-30T11:40:53.022Z,99.40
2022-10-30T11:45:55.522Z,99.10
2022-10-30T11:51:03.181Z,99.00
2022-10-30T11:56:15.410Z,99.20
2022-10-30T12:01:25.820Z,99.60
2022-10-30T12:06:30.139Z,99.40
2022-10-30T12:11:37.477Z,99.50
2022-10-30T12:16:46.623Z,98.80
2022-10-30T12:21:54.520Z,98.60
2022-10-30T12:27:00.978Z,98.80
2022-10-30T12:32:08.120Z,98.40
2022-10-30T12:37:20.431Z,98.50
2022-10-30T12:42:24.945Z,98.30
2022-10-30T12:47:34.783Z,98.60
2022-10-30T12:52:55.358Z,99.90
2022-10-30T12:58:26.225Z,99.90
2022-10-30T13:04:02.608Z,99.90
2022-10-30T13:09:18.835Z,99.90
2022-10-30T13:14:28.244Z,99.90
2022-10-30T13:19:30.731Z,99.90
2022-10-30T13:24:39.025Z,99.90
2022-10-30T13:30:01.815Z,99.90
2022-10-30T13:35:31.805Z,99.90
2022-10-30T13:40:49.817Z,99.90
2022-10-30T13:46:13.261Z,99.90
2022-10-30T13:51:37.330Z,99.90
2022-10-30T13:56:42.362Z,99.90
2022-10-30T14:02:06.785Z,99.90
2022-10-30T14:07:30.626Z,99.90
2022-10-30T14:12:55.842Z,99.90
2022-10-30T14:18:13.485Z,99.90
2022-10-30T14:23:20.498Z,99.90
2022-10-30T14:28:22.873Z,99.90
2022-10-30T14:33:45.993Z,99.90
2022-10-30T14:39:09.274Z,99.90
2022-10-30T14:44:43.453Z,99.90
2022-10-30T14:49:57.692Z,99.90
2022-10-30T14:55:03.010Z,99.90
2022-10-30T15:00:35.000Z,99.90
2022-10-30T15:05:45.138Z,99.90
2022-10-30T15:11:24.841Z,99.90
2022-10-30T15:16:29.422Z,99.90
2022-10-30T15:21:35.533Z,99.90
2022-10-30T15:26:39.658Z,99.90
2022-10-30T15:31:41.935Z,99.90
2022-10-30T15:36:44.679Z,99.90
2022-10-30T15:41:59.753Z,99.90
2022-10-30T15:47:04.072Z,99.90
2022-10-30T15:52:17.157Z,99.90
2022-10-30T15:57:57.432Z,99.90
2022-10-30T16:03:27.775Z,99.90
2022-10-30T16:08:30.040Z,99.90
2022-10-30T16:13:32.469Z,99.90
2022-10-30T16:18:36.379Z,99.90
2022-10-30T16:23:47.105Z,99.90
2022-10-30T16:28:49.387Z,99.90
2022-10-30T16:33:52.440Z,99.90
2022-10-30T16:38:55.977Z,99.90
2022-10-30T16:44:18.272Z,99.90
2022-10-30T16:49:23.883Z,99.90
2022-10-30T16:54:38.394Z,99.90
2022-10-30T16:59:47.157Z,99.90
2022-10-30T17:04:57.025Z,99.90
2022-10-30T17:10:00.681Z,99.90
2022-10-30T17:15:12.712Z,99.90
2022-10-30T17:20:22.669Z,99.90
2022-10-30T17:25:38.170Z,99.90
2022-10-30T17:30:42.945Z,99.90
2022-10-30T17:35:45.269Z,99.90
2022-10-30T17:40:47.778Z,99.90
2022-10-30T17:45:50.069Z,99.90
2022-10-30T17:50:52.450Z,99.90
2022-10-30T17:56:29.817Z,99.90
2022-10-30T18:01:32.167Z,99.90
2022-10-30T18:06:34.488Z,99.90
2022-10-30T18:11:37.224Z,99.90
2022-10-30T18:16:39.523Z,99.90
2022-10-30T18:21:41.842Z,99.90
2022-10-30T18:26:45.230Z,99.90
2022-10-30T18:31:47.603Z,99.90
2022-10-30T18:36:50.212Z,99.90
2022-10-30T18:41:53.743Z,99.90
2022-10-30T18:47:00.170Z,99.90
2022-10-30T18:52:05.147Z,99.90
2022-10-30T18:57:07.421Z,99.90
2022-10-30T19:02:24.006Z,99.90
2022-10-30T19:07:26.382Z,99.90
2022-10-30T19:12:28.764Z,99.90
2022-10-30T19:17:31.131Z,99.90
2022-10-30T19:22:33.498Z,99.90
2022-10-30T19:27:35.833Z,99.90
2022-10-30T19:32:38.222Z,99.90
2022-10-30T19:37:41.557Z,99.90
2022-10-30T19:42:44.385Z,99.90
2022-10-30T19:47:51.402Z,99.90
2022-10-30T19:52:56.168Z,99.90
2022-10-30T19:57:59.885Z,99.90
2022-10-30T20:03:04.091Z,99.90
2022-10-30T20:08:10.886Z,99.90
2022-10-30T20:13:13.206Z,99.90
2022-10-30T20:18:16.939Z,99.90
2022-10-30T20:23:20.454Z,99.90
2022-10-30T20:28:45.163Z,99.90
2022-10-30T20:33:47.527Z,99.90
2022-10-30T20:38:49.816Z,99.90
2022-10-30T20:43:52.267Z,99.90
2022-10-30T20:48:55.237Z,99.90
2022-10-30T20:53:57.554Z,99.90
2022-10-30T20:58:59.831Z,99.90
2022-10-30T21:04:02.469Z,99.90
2022-10-30T21:09:04.925Z,99.90
2022-10-30T21:14:07.223Z,99.90
2022-10-30T21:19:09.530Z,99.90
2022-10-30T21:24:11.906Z,99.90
2022-10-30T21:29:14.298Z,99.90
2022-10-30T21:34:17.449Z,99.90
2022-10-30T21:39:19.708Z,99.90
2022-10-30T21:44:22.045Z,99.90
2022-10-30T21:49:24.373Z,99.90
2022-10-30T21:54:26.804Z,99.90
2022-10-30T21:59:29.080Z,99.90
2022-10-30T22:04:32.964Z,99.90
2022-10-30T22:09:35.266Z,99.90
2022-10-30T22:14:37.537Z,99.90
2022-10-30T22:19:39.909Z,99.90
2022-10-30T22:24:42.259Z,99.90
2022-10-30T22:29:44.550Z,99.90
2022-10-30T22:34:46.827Z,99.90
2022-10-30T22:39:49.108Z,99.90
2022-10-30T22:44:51.452Z,99.90
2022-10-30T22:49:53.723Z,99.90
2022-10-30T22:54:55.980Z,99.90
2022-10-30T22:59:58.334Z,99.90
2022-10-30T23:05:00.621Z,99.90
2022-10-30T23:10:02.944Z,99.90
2022-10-30T23:15:05.852Z,99.90
2022-10-30T23:20:08.782Z,99.90
2022-10-30T23:25:11.101Z,99.90
2022-10-30T23:30:13.578Z,99.90
2022-10-30T23:35:15.869Z,99.90
2022-10-30T23:40:18.156Z,99.90
2022-10-30T23:45:21.852Z,99.90
2022-10-30T23:50:24.123Z,99.90
2022-10-30T23:55:26.810Z,99.90
